Ashford, Connecticut
Current Conditions -  °F | °C
As of 12:52 AM on Saturday 27 Dec 2014 (Local Time) from KIJD Reporting Station
Clear Clear  
Wind Chill: -2°   Ceiling: Unl
Heat Index: -2°   Visibility: 7mi
Dew Point: -4°   Wind: 0mph
Humidity: 88%   Direction: NA
Pressure: 30.16"   Gusts: NA
Location:  41.87°N, 72.12°W
Report Text: KIJD 270552Z AUTO 00000KT 7SM CLR M02/M04 A3016 RMK AO2 SLP216 I1000 I6000 T10221039 10022 21033 57013
Loading
Personal Weather Stations






























Interactive Weather Map New forecast layout! Learn more

10-Day Weather Forecast

Advertisements
Track Severe Weather on mobile